createdAt,value
2022-11-08T00:03:50.252Z,9.03
2022-11-08T00:08:12.930Z,9.06
2022-11-08T00:12:34.522Z,9.08
2022-11-08T00:16:38.052Z,9.08
2022-11-08T00:20:41.751Z,9.09
2022-11-08T00:24:46.950Z,9.10
2022-11-08T00:28:50.482Z,9.08
2022-11-08T00:32:54.108Z,9.05
2022-11-08T00:36:57.670Z,8.99
2022-11-08T00:41:02.187Z,8.92
2022-11-08T00:45:06.579Z,8.83
2022-11-08T00:49:10.296Z,8.74
2022-11-08T00:53:13.801Z,8.70
2022-11-08T00:57:20.464Z,8.66
2022-11-08T01:01:26.049Z,8.62
2022-11-08T01:05:29.759Z,8.57
2022-11-08T01:09:34.231Z,8.51
2022-11-08T01:13:39.190Z,8.45
2022-11-08T01:17:42.854Z,8.39
2022-11-08T01:21:45.970Z,8.35
2022-11-08T01:25:50.376Z,8.32
2022-11-08T01:29:55.226Z,8.29
2022-11-08T01:33:59.425Z,8.26
2022-11-08T01:38:03.564Z,8.22
2022-11-08T01:42:06.775Z,8.20
2022-11-08T01:46:40.717Z,8.23
2022-11-08T01:50:44.428Z,8.24
2022-11-08T01:54:53.729Z,8.28
2022-11-08T01:58:59.844Z,8.34
2022-11-08T02:03:06.767Z,8.37
2022-11-08T02:07:13.986Z,8.36
2022-11-08T02:11:19.261Z,8.33
2022-11-08T02:15:25.531Z,8.25
2022-11-08T02:19:38.978Z,8.17
2022-11-08T02:23:46.898Z,8.07
2022-11-08T02:27:50.399Z,7.94
2022-11-08T02:31:54.253Z,7.85
2022-11-08T02:35:58.993Z,7.77
2022-11-08T02:40:04.346Z,7.69
2022-11-08T02:44:07.348Z,7.61
2022-11-08T02:48:11.409Z,7.55
2022-11-08T02:52:15.146Z,7.46
2022-11-08T02:56:20.290Z,7.39
2022-11-08T03:00:24.191Z,7.34
2022-11-08T03:04:27.206Z,7.28
2022-11-08T03:08:30.722Z,7.23
2022-11-08T03:12:35.642Z,7.17
2022-11-08T03:16:39.245Z,7.08
2022-11-08T03:20:42.296Z,7.02
2022-11-08T03:24:45.800Z,6.95
2022-11-08T03:28:50.695Z,6.91
2022-11-08T03:32:54.408Z,6.90
2022-11-08T03:36:58.177Z,6.93
2022-11-08T03:41:01.219Z,6.96
2022-11-08T03:45:06.622Z,6.95
2022-11-08T03:49:10.508Z,6.92
2022-11-08T03:53:14.054Z,6.87
2022-11-08T03:57:17.575Z,6.86
2022-11-08T04:01:22.097Z,6.84
2022-11-08T04:05:25.825Z,6.82
2022-11-08T04:09:29.265Z,6.80
2022-11-08T04:13:50.189Z,6.75
2022-11-08T04:18:11.060Z,6.73
2022-11-08T04:22:14.554Z,6.69
2022-11-08T04:26:18.985Z,6.65
2022-11-08T04:30:22.449Z,6.62
2022-11-08T04:34:27.392Z,6.58
2022-11-08T04:38:31.923Z,6.56
2022-11-08T04:42:35.432Z,6.54
2022-11-08T04:46:38.945Z,6.51
2022-11-08T04:50:44.094Z,6.48
2022-11-08T04:54:48.113Z,6.43
2022-11-08T05:03:03.206Z,6.30
2022-11-08T05:07:08.295Z,6.20
2022-11-08T05:11:13.868Z,6.15
2022-11-08T05:15:17.841Z,6.08
2022-11-08T05:19:42.356Z,6.02
2022-11-08T05:23:46.907Z,6.07
2022-11-08T05:27:50.526Z,6.13
2022-11-08T05:31:53.839Z,6.24
2022-11-08T05:36:00.072Z,6.32
2022-11-08T05:40:09.558Z,6.46
2022-11-08T05:44:13.139Z,6.55
2022-11-08T05:48:17.334Z,6.70
2022-11-08T05:52:21.005Z,6.83
2022-11-08T05:56:25.639Z,6.96
2022-11-08T06:00:29.982Z,7.04
2022-11-08T06:04:33.782Z,7.11
2022-11-08T06:08:38.331Z,7.14
2022-11-08T06:12:43.002Z,7.13
2022-11-08T06:16:46.520Z,7.07
2022-11-08T06:20:49.468Z,7.01
2022-11-08T06:24:52.824Z,6.95
2022-11-08T06:28:57.910Z,6.90
2022-11-08T06:33:01.782Z,6.84
2022-11-08T06:37:05.701Z,6.81
2022-11-08T06:41:08.937Z,6.80
2022-11-08T06:45:14.515Z,6.92
2022-11-08T06:49:18.142Z,7.13
2022-11-08T06:53:22.058Z,7.39
2022-11-08T06:57:25.603Z,7.62
2022-11-08T07:01:30.199Z,7.81
2022-11-08T07:05:36.501Z,7.93
2022-11-08T07:09:40.388Z,8.10
2022-11-08T07:13:43.867Z,8.29
2022-11-08T07:17:50.655Z,8.52
2022-11-08T07:21:54.074Z,8.75
2022-11-08T07:25:57.582Z,8.98
2022-11-08T07:30:01.658Z,9.18
2022-11-08T07:34:06.460Z,9.39
2022-11-08T07:38:09.962Z,9.57
2022-11-08T07:42:13.068Z,9.77
2022-11-08T07:46:16.553Z,9.93
2022-11-08T07:50:22.399Z,10.10
2022-11-08T07:54:25.770Z,10.21
2022-11-08T07:58:29.323Z,10.28
2022-11-08T08:02:33.081Z,10.31
2022-11-08T08:06:37.532Z,10.36
2022-11-08T08:15:06.317Z,10.52
2022-11-08T08:19:09.431Z,10.60
2022-11-08T08:23:14.371Z,10.74
2022-11-08T08:27:18.057Z,10.78
2022-11-08T08:31:21.686Z,10.77
2022-11-08T08:35:25.109Z,10.76
2022-11-08T08:39:29.776Z,10.72
2022-11-08T08:43:34.153Z,10.72
2022-11-08T08:47:37.613Z,10.85
2022-11-08T08:51:41.182Z,10.99
2022-11-08T08:55:46.426Z,11.16
2022-11-08T09:04:13.157Z,11.45
2022-11-08T09:08:16.664Z,11.58
2022-11-08T09:12:21.606Z,11.81
2022-11-08T09:16:25.020Z,12.06
2022-11-08T09:20:28.048Z,12.35
2022-11-08T09:24:31.575Z,12.66
2022-11-08T09:28:37.467Z,12.99
2022-11-08T09:37:04.695Z,13.54
2022-11-08T09:41:23.055Z,13.82
2022-11-08T09:45:32.593Z,14.07
2022-11-08T09:49:42.353Z,14.30
2022-11-08T09:53:51.884Z,14.56
2022-11-08T09:58:07.069Z,14.82
2022-11-08T10:02:19.219Z,14.97
2022-11-08T10:06:46.947Z,15.03
2022-11-08T10:11:13.386Z,15.19
2022-11-08T10:15:25.731Z,15.43
2022-11-08T10:19:48.241Z,15.68
2022-11-08T10:23:59.401Z,15.96
2022-11-08T10:28:05.466Z,16.15
2022-11-08T10:32:16.895Z,16.25
2022-11-08T10:36:28.050Z,16.51
2022-11-08T10:40:41.659Z,16.74
2022-11-08T10:44:45.557Z,17.10
2022-11-08T10:48:49.176Z,17.41
2022-11-08T10:53:01.947Z,17.64
2022-11-08T10:57:05.662Z,17.68
2022-11-08T11:01:19.357Z,17.57
2022-11-08T11:05:28.704Z,17.39
2022-11-08T11:09:33.623Z,17.29
2022-11-08T11:13:37.096Z,17.31
2022-11-08T11:17:40.418Z,17.36
2022-11-08T11:21:46.205Z,17.34
2022-11-08T11:25:54.074Z,17.33
2022-11-08T11:30:23.751Z,17.31
2022-11-08T11:34:36.567Z,17.33
2022-11-08T11:38:47.211Z,17.35
2022-11-08T11:43:01.849Z,17.44
2022-11-08T11:47:14.547Z,17.46
2022-11-08T11:51:18.381Z,17.33
2022-11-08T11:55:25.912Z,17.11
2022-11-08T11:59:54.400Z,16.85
2022-11-08T12:04:26.782Z,16.76
2022-11-08T12:08:41.676Z,16.89
2022-11-08T12:12:58.192Z,17.16
2022-11-08T12:17:17.936Z,17.37
2022-11-08T12:21:32.041Z,17.47
2022-11-08T12:25:42.157Z,17.43
2022-11-08T12:29:53.582Z,17.25
2022-11-08T12:34:12.927Z,16.98
2022-11-08T12:38:26.110Z,16.73
2022-11-08T12:42:58.606Z,16.58
2022-11-08T12:47:15.132Z,16.63
2022-11-08T12:51:27.692Z,16.85
2022-11-08T12:55:35.940Z,17.13
2022-11-08T12:59:44.031Z,17.33
2022-11-08T13:04:20.764Z,17.47
2022-11-08T13:08:33.079Z,17.47
2022-11-08T13:13:05.317Z,17.45
2022-11-08T13:17:17.675Z,17.43
2022-11-08T13:21:38.579Z,17.44
2022-11-08T13:25:45.737Z,17.55
2022-11-08T13:29:48.867Z,17.69
2022-11-08T13:34:07.494Z,17.84
2022-11-08T13:38:24.521Z,17.93
2022-11-08T13:42:58.976Z,18.03
2022-11-08T13:47:02.533Z,18.00
2022-11-08T13:51:26.269Z,17.96
2022-11-08T13:55:49.729Z,17.81
2022-11-08T13:59:59.031Z,17.62
2022-11-08T14:04:03.044Z,17.41
2022-11-08T14:08:17.691Z,17.28
2022-11-08T14:12:27.574Z,17.20
2022-11-08T14:16:40.373Z,17.15
2022-11-08T14:20:46.412Z,17.11
2022-11-08T14:24:53.810Z,17.06
2022-11-08T14:29:01.412Z,17.02
2022-11-08T14:33:18.638Z,16.98
2022-11-08T14:37:26.870Z,16.96
2022-11-08T14:41:32.557Z,16.89
2022-11-08T14:45:35.636Z,16.75
2022-11-08T14:49:40.387Z,16.62
2022-11-08T14:53:47.475Z,16.41
2022-11-08T14:57:51.043Z,16.17
2022-11-08T15:01:54.228Z,15.89
2022-11-08T15:06:01.944Z,15.60
2022-11-08T15:10:10.358Z,15.27
2022-11-08T15:14:21.484Z,14.89
2022-11-08T15:18:28.720Z,14.51
2022-11-08T15:22:34.604Z,14.14
2022-11-08T15:26:38.978Z,13.77
2022-11-08T15:30:44.793Z,13.40
2022-11-08T15:34:49.430Z,13.02
2022-11-08T15:38:53.931Z,12.68
2022-11-08T15:42:58.085Z,12.35
2022-11-08T15:47:01.709Z,12.05
2022-11-08T15:51:06.387Z,11.76
2022-11-08T15:55:16.393Z,11.53
2022-11-08T15:59:22.175Z,11.35
2022-11-08T16:03:25.777Z,11.25
2022-11-08T16:07:28.831Z,11.15
2022-11-08T16:11:34.371Z,11.11
2022-11-08T16:15:39.159Z,11.05
2022-11-08T16:19:42.266Z,10.99
2022-11-08T16:24:06.788Z,10.90
2022-11-08T16:28:21.159Z,10.90
2022-11-08T16:32:24.439Z,10.87
2022-11-08T16:36:28.744Z,10.79
2022-11-08T16:40:32.375Z,10.79
2022-11-08T16:44:38.093Z,10.75
2022-11-08T16:48:46.056Z,10.68
2022-11-08T16:52:49.520Z,10.71
2022-11-08T16:57:03.445Z,10.68
2022-11-08T17:01:16.393Z,10.67
2022-11-08T17:05:22.214Z,10.62
2022-11-08T17:09:25.789Z,10.60
2022-11-08T17:13:29.152Z,10.58
2022-11-08T17:17:33.610Z,10.55
2022-11-08T17:21:45.701Z,10.46
2022-11-08T17:25:49.362Z,10.47
2022-11-08T17:29:52.771Z,10.44
2022-11-08T17:33:57.529Z,10.40
2022-11-08T17:38:00.601Z,10.37
2022-11-08T17:42:04.135Z,10.33
2022-11-08T17:46:08.026Z,10.31
2022-11-08T17:50:12.771Z,10.23
2022-11-08T17:54:16.544Z,10.26
2022-11-08T17:58:19.792Z,10.21
2022-11-08T18:02:23.929Z,10.25
2022-11-08T18:06:29.671Z,10.26
2022-11-08T18:10:37.421Z,10.23
2022-11-08T18:14:40.699Z,10.30
2022-11-08T18:18:46.665Z,10.30
2022-11-08T18:22:58.444Z,10.31
2022-11-08T18:27:02.194Z,10.28
2022-11-08T18:31:08.135Z,10.27
2022-11-08T18:35:13.796Z,10.24
2022-11-08T18:39:19.663Z,10.22
2022-11-08T18:43:23.551Z,10.19
2022-11-08T18:47:28.586Z,10.16
2022-11-08T18:51:32.490Z,10.12
2022-11-08T18:55:36.920Z,10.11
2022-11-08T18:59:40.149Z,10.05
2022-11-08T19:03:44.846Z,10.03
2022-11-08T19:07:48.334Z,10.01
2022-11-08T19:11:53.767Z,10.01
2022-11-08T19:15:57.687Z,10.01
2022-11-08T19:20:00.766Z,10.02
2022-11-08T19:24:09.164Z,10.06
2022-11-08T19:28:13.976Z,10.10
2022-11-08T19:32:17.374Z,10.11
2022-11-08T19:36:22.816Z,10.13
2022-11-08T19:40:31.898Z,10.14
2022-11-08T19:44:37.334Z,10.16
2022-11-08T19:48:43.841Z,10.15
2022-11-08T19:52:46.846Z,10.14
2022-11-08T19:57:04.211Z,10.14
2022-11-08T20:01:16.917Z,10.15
2022-11-08T20:05:22.391Z,10.17
2022-11-08T20:09:30.249Z,10.19
2022-11-08T20:13:36.944Z,10.23
2022-11-08T20:17:43.373Z,10.27
2022-11-08T20:21:47.952Z,10.27
2022-11-08T20:25:52.359Z,10.30
2022-11-08T20:29:55.933Z,10.31
2022-11-08T20:34:02.918Z,10.33
2022-11-08T20:38:06.645Z,10.33
2022-11-08T20:42:10.559Z,10.33
2022-11-08T20:46:15.970Z,10.33
2022-11-08T20:50:20.441Z,10.32
2022-11-08T20:54:24.176Z,10.31
2022-11-08T20:58:29.664Z,10.33
2022-11-08T21:02:32.838Z,10.33
2022-11-08T21:06:38.302Z,10.34
2022-11-08T21:10:43.825Z,10.34
2022-11-08T21:14:47.261Z,10.35
2022-11-08T21:18:51.314Z,10.36
2022-11-08T21:22:56.547Z,10.37
2022-11-08T21:26:59.717Z,10.38
2022-11-08T21:31:03.607Z,10.39
2022-11-08T21:35:09.753Z,10.38
2022-11-08T21:39:14.442Z,10.39
2022-11-08T21:43:18.532Z,10.38
2022-11-08T21:47:21.915Z,10.37
2022-11-08T21:51:26.175Z,10.35
2022-11-08T21:55:32.945Z,10.35
2022-11-08T21:59:36.047Z,10.33
2022-11-08T22:03:39.892Z,10.31
2022-11-08T22:07:43.577Z,10.31
2022-11-08T22:11:47.980Z,10.33
2022-11-08T22:15:51.543Z,10.31
2022-11-08T22:19:55.312Z,10.33
2022-11-08T22:23:58.348Z,10.33
2022-11-08T22:28:03.505Z,10.30
2022-11-08T22:32:07.699Z,10.25
2022-11-08T22:36:11.886Z,10.26
2022-11-08T22:40:17.135Z,10.23
2022-11-08T22:44:22.361Z,10.21
2022-11-08T22:48:26.241Z,10.20
2022-11-08T22:52:29.832Z,10.21
2022-11-08T22:56:33.519Z,10.23
2022-11-08T23:00:38.370Z,10.26
2022-11-08T23:04:41.997Z,10.29
2022-11-08T23:08:45.936Z,10.32
2022-11-08T23:13:06.229Z,10.35
2022-11-08T23:17:11.074Z,10.37
2022-11-08T23:21:31.929Z,10.38
2022-11-08T23:25:35.102Z,10.38
2022-11-08T23:29:55.756Z,10.36
2022-11-08T23:34:00.782Z,10.36
2022-11-08T23:38:03.732Z,10.35
2022-11-08T23:42:24.458Z,10.35
2022-11-08T23:46:28.023Z,10.35
2022-11-08T23:50:32.630Z,10.34
2022-11-08T23:54:36.092Z,10.33
2022-11-08T23:58:39.162Z,10.33
